createdAt,value
2023-01-07T00:01:46.891Z,10.63
2023-01-07T00:04:34.161Z,11.65
2023-01-07T00:07:21.344Z,13.82
2023-01-07T00:10:09.555Z,15.60
2023-01-07T00:12:58.503Z,12.52
2023-01-07T00:15:46.167Z,14.23
2023-01-07T00:18:33.515Z,14.77
2023-01-07T00:21:22.404Z,9.35
2023-01-07T00:24:11.977Z,15.02
2023-01-07T00:26:59.195Z,11.43
2023-01-07T00:29:47.865Z,9.10
2023-01-07T00:32:54.518Z,10.10
2023-01-07T00:35:41.554Z,11.55
2023-01-07T00:38:29.338Z,8.35
2023-01-07T00:41:16.710Z,10.18
2023-01-07T00:44:04.978Z,8.48
2023-01-07T00:46:53.707Z,11.48
2023-01-07T00:49:40.939Z,7.75
2023-01-07T00:52:28.330Z,9.93
2023-01-07T00:55:15.964Z,10.63
2023-01-07T00:58:03.325Z,10.48
2023-01-07T01:00:51.340Z,9.32
2023-01-07T01:03:40.789Z,10.30
2023-01-07T01:06:28.112Z,10.82
2023-01-07T01:09:15.325Z,8.13
2023-01-07T01:12:02.701Z,7.88
2023-01-07T01:14:49.964Z,7.97
2023-01-07T01:17:37.558Z,7.63
2023-01-07T01:20:26.527Z,6.82
2023-01-07T01:23:14.104Z,9.85
2023-01-07T01:26:06.283Z,7.97
2023-01-07T01:28:53.594Z,8.13
2023-01-07T01:31:44.010Z,10.68
2023-01-07T01:34:31.545Z,9.10
2023-01-07T01:37:20.261Z,9.00
2023-01-07T01:40:08.801Z,7.63
2023-01-07T01:42:56.045Z,10.68
2023-01-07T01:45:43.523Z,12.25
2023-01-07T01:48:31.696Z,9.55
2023-01-07T01:51:24.041Z,12.02
2023-01-07T01:54:16.231Z,6.93
2023-01-07T01:57:09.799Z,6.20
2023-01-07T01:59:59.189Z,9.10
2023-01-07T02:02:50.457Z,6.22
2023-01-07T02:05:42.280Z,9.60
2023-01-07T02:08:29.876Z,10.07
2023-01-07T02:11:33.228Z,9.82
2023-01-07T02:14:45.598Z,12.27
2023-01-07T02:17:45.914Z,13.52
2023-01-07T02:20:58.143Z,17.77
2023-01-07T02:24:31.159Z,13.30
2023-01-07T02:27:44.387Z,12.88
2023-01-07T02:30:51.847Z,12.05
2023-01-07T02:33:52.043Z,12.65
2023-01-07T02:36:50.556Z,14.85
2023-01-07T02:39:49.212Z,15.45
2023-01-07T02:42:45.994Z,12.88
2023-01-07T02:45:37.574Z,11.43
2023-01-07T02:48:26.785Z,10.73
2023-01-07T02:51:15.697Z,11.77
2023-01-07T02:54:04.000Z,12.88
2023-01-07T02:57:20.015Z,9.15
2023-01-07T03:00:18.967Z,16.15
2023-01-07T03:03:25.789Z,13.32
2023-01-07T03:06:32.220Z,17.60
2023-01-07T03:09:30.460Z,15.20
2023-01-07T03:12:27.360Z,14.38
2023-01-07T03:15:21.091Z,17.58
2023-01-07T03:18:12.848Z,16.40
2023-01-07T03:21:04.311Z,17.38
2023-01-07T03:23:56.996Z,11.43
2023-01-07T03:26:48.118Z,16.75
2023-01-07T03:29:36.724Z,12.93
2023-01-07T03:32:29.317Z,12.85
2023-01-07T03:35:17.424Z,14.40
2023-01-07T03:38:05.619Z,12.05
2023-01-07T03:40:54.395Z,14.45
2023-01-07T03:43:41.189Z,14.30
2023-01-07T03:46:29.180Z,13.55
2023-01-07T03:49:17.138Z,12.52
2023-01-07T03:52:04.469Z,10.32
2023-01-07T03:54:52.302Z,15.52
2023-01-07T03:57:41.992Z,15.15
2023-01-07T04:00:29.699Z,16.05
2023-01-07T04:03:25.941Z,15.00
2023-01-07T04:06:13.657Z,18.50
2023-01-07T04:09:01.231Z,24.88
2023-01-07T04:11:48.656Z,17.23
2023-01-07T04:14:37.159Z,17.23
2023-01-07T04:17:24.390Z,16.98
2023-01-07T04:20:13.163Z,16.75
2023-01-07T04:23:01.014Z,23.13
2023-01-07T04:25:50.339Z,22.25
2023-01-07T04:28:42.432Z,20.35
2023-01-07T04:31:31.390Z,21.55
2023-01-07T04:34:18.908Z,20.33
2023-01-07T04:37:05.992Z,21.73
2023-01-07T04:39:53.212Z,27.45
2023-01-07T04:42:40.971Z,28.55
2023-01-07T04:45:29.912Z,20.67
2023-01-07T04:48:20.750Z,23.02
2023-01-07T04:51:10.981Z,21.10
2023-01-07T04:53:59.845Z,24.88
2023-01-07T04:56:47.754Z,17.02
2023-01-07T04:59:35.293Z,21.48
2023-01-07T05:02:23.754Z,21.52
2023-01-07T05:05:12.542Z,28.73
2023-01-07T05:08:00.883Z,37.60
2023-01-07T05:10:50.851Z,39.22
2023-01-07T05:13:38.449Z,26.50
2023-01-07T05:16:26.162Z,28.00
2023-01-07T05:19:15.442Z,25.38
2023-01-07T05:22:08.104Z,28.83
2023-01-07T05:24:59.320Z,24.40
2023-01-07T05:27:48.172Z,29.73
2023-01-07T05:30:36.223Z,26.52
2023-01-07T05:33:24.586Z,27.75
2023-01-07T05:36:12.879Z,30.05
2023-01-07T05:39:01.497Z,30.52
2023-01-07T05:41:48.878Z,24.40
2023-01-07T05:44:37.227Z,21.95
2023-01-07T05:47:24.261Z,17.38
2023-01-07T05:50:11.944Z,27.77
2023-01-07T05:52:59.525Z,27.63
2023-01-07T05:55:48.026Z,30.00
2023-01-07T05:58:35.653Z,21.33
2023-01-07T06:01:23.090Z,21.92
2023-01-07T06:04:10.858Z,20.13
2023-01-07T06:06:58.707Z,17.77
2023-01-07T06:09:46.423Z,22.25
2023-01-07T06:12:35.488Z,24.95
2023-01-07T06:15:22.713Z,26.35
2023-01-07T06:18:09.797Z,23.77
2023-01-07T06:20:57.233Z,19.00
2023-01-07T06:23:44.589Z,18.30
2023-01-07T06:26:32.019Z,20.30
2023-01-07T06:29:20.633Z,32.05
2023-01-07T06:32:08.323Z,34.72
2023-01-07T06:34:55.875Z,40.33
2023-01-07T06:37:43.076Z,41.05
2023-01-07T06:40:30.703Z,29.10
2023-01-07T06:43:17.851Z,26.70
2023-01-07T06:46:07.171Z,25.77
2023-01-07T06:48:54.519Z,23.00
2023-01-07T06:51:41.869Z,18.80
2023-01-07T06:54:29.060Z,20.05
2023-01-07T06:57:16.469Z,18.83
2023-01-07T07:00:07.166Z,20.83
2023-01-07T07:02:55.983Z,17.33
2023-01-07T07:05:43.681Z,19.40
2023-01-07T07:08:31.228Z,15.25
2023-01-07T07:11:18.588Z,15.63
2023-01-07T07:14:05.941Z,14.45
2023-01-07T07:16:53.386Z,19.58
2023-01-07T07:19:41.901Z,17.42
2023-01-07T07:22:29.408Z,18.70
2023-01-07T07:25:17.124Z,21.17
2023-01-07T07:28:04.851Z,22.90
2023-01-07T07:30:52.608Z,18.25
2023-01-07T07:33:39.670Z,16.85
2023-01-07T07:36:28.506Z,18.92
2023-01-07T07:39:18.845Z,21.02
2023-01-07T07:42:06.481Z,20.55
2023-01-07T07:44:53.774Z,16.75
2023-01-07T07:47:40.883Z,18.70
2023-01-07T07:50:27.973Z,22.50
2023-01-07T07:53:16.896Z,16.08
2023-01-07T07:56:04.028Z,20.10
2023-01-07T07:58:51.443Z,20.35
2023-01-07T08:01:38.945Z,18.50
2023-01-07T08:04:28.806Z,20.85
2023-01-07T08:07:32.565Z,18.58
2023-01-07T08:10:22.144Z,20.83
2023-01-07T08:13:10.251Z,22.27
2023-01-07T08:15:57.743Z,26.02
2023-01-07T08:18:45.132Z,24.63
2023-01-07T08:21:32.464Z,22.00
2023-01-07T08:24:19.885Z,21.83
2023-01-07T08:27:08.484Z,16.67
2023-01-07T08:29:56.379Z,26.50
2023-01-07T08:32:43.473Z,38.83
2023-01-07T08:35:31.095Z,41.63
2023-01-07T08:38:18.587Z,34.67
2023-01-07T08:41:06.099Z,45.63
2023-01-07T08:43:55.418Z,45.78
2023-01-07T08:46:42.982Z,72.22
2023-01-07T08:49:30.563Z,79.07
2023-01-07T08:52:18.171Z,58.33
2023-01-07T08:55:06.328Z,44.63
2023-01-07T08:57:54.284Z,33.25
2023-01-07T09:00:43.875Z,28.75
2023-01-07T09:03:31.081Z,28.92
2023-01-07T09:06:18.465Z,27.48
2023-01-07T09:09:06.163Z,29.25
2023-01-07T09:11:53.453Z,34.50
2023-01-07T09:14:40.789Z,31.83
2023-01-07T09:17:29.427Z,30.65
2023-01-07T09:20:16.991Z,35.95
2023-01-07T09:23:04.639Z,35.53
2023-01-07T09:25:52.173Z,36.20
2023-01-07T09:28:39.693Z,35.08
2023-01-07T09:31:27.069Z,35.47
2023-01-07T09:34:16.704Z,41.00
2023-01-07T09:37:04.023Z,34.67
2023-01-07T09:39:51.626Z,41.28
2023-01-07T09:42:52.128Z,38.78
2023-01-07T09:45:44.469Z,41.67
2023-01-07T09:48:35.103Z,37.05
2023-01-07T09:51:28.434Z,37.55
2023-01-07T09:54:23.523Z,43.75
2023-01-07T09:57:17.229Z,36.85
2023-01-07T10:00:11.657Z,35.28
2023-01-07T10:03:19.075Z,35.42
2023-01-07T10:06:12.527Z,34.80
2023-01-07T10:09:10.216Z,26.55
2023-01-07T10:12:05.426Z,28.55
2023-01-07T10:15:16.695Z,28.13
2023-01-07T10:18:20.703Z,25.83
2023-01-07T10:21:17.681Z,27.67
2023-01-07T10:27:01.917Z,25.98
2023-01-07T10:29:53.944Z,29.52
2023-01-07T10:32:42.653Z,27.95
2023-01-07T10:35:34.351Z,26.20
2023-01-07T10:38:22.144Z,36.10
2023-01-07T10:41:16.727Z,37.03
2023-01-07T10:44:31.091Z,33.90
2023-01-07T10:47:29.836Z,31.45
2023-01-07T10:50:43.225Z,25.75
2023-01-07T10:53:45.230Z,24.27
2023-01-07T10:56:37.910Z,23.13
2023-01-07T10:59:26.740Z,23.63
2023-01-07T11:02:19.043Z,28.90
2023-01-07T11:05:07.486Z,29.15
2023-01-07T11:08:01.583Z,30.02
2023-01-07T11:10:49.386Z,26.15
2023-01-07T11:13:42.285Z,25.38
2023-01-07T11:16:33.010Z,27.90
2023-01-07T11:19:23.367Z,25.65
2023-01-07T11:22:31.423Z,25.52
2023-01-07T11:25:30.187Z,28.10
2023-01-07T11:28:20.442Z,27.65
2023-01-07T11:31:09.259Z,26.00
2023-01-07T11:34:03.141Z,25.85
2023-01-07T11:36:52.353Z,25.17
2023-01-07T11:39:39.889Z,20.40
2023-01-07T11:42:42.151Z,17.70
2023-01-07T11:45:33.003Z,18.30
2023-01-07T11:48:27.288Z,21.23
2023-01-07T11:51:14.935Z,18.08
2023-01-07T11:54:02.434Z,14.63
2023-01-07T11:56:49.829Z,12.30
2023-01-07T11:59:37.461Z,11.98
2023-01-07T12:02:27.149Z,12.57
2023-01-07T12:05:22.633Z,12.80
2023-01-07T12:08:20.528Z,13.50
2023-01-07T12:11:10.120Z,13.65
2023-01-07T12:13:57.767Z,13.70
2023-01-07T12:16:45.997Z,13.80
2023-01-07T12:19:53.993Z,13.23
2023-01-07T12:22:52.409Z,13.15
2023-01-07T12:25:57.879Z,12.85
2023-01-07T12:29:01.937Z,13.82
2023-01-07T12:32:04.859Z,13.55
2023-01-07T12:34:57.090Z,13.02
2023-01-07T12:37:49.982Z,14.52
2023-01-07T12:40:41.736Z,12.93
2023-01-07T12:43:34.606Z,13.00
2023-01-07T12:46:23.784Z,12.10
2023-01-07T12:49:17.952Z,15.57
2023-01-07T12:52:09.343Z,13.68
2023-01-07T12:55:03.735Z,17.45
2023-01-07T12:58:04.347Z,13.40
2023-01-07T13:00:57.176Z,13.85
2023-01-07T13:03:52.957Z,12.45
2023-01-07T13:06:45.761Z,15.00
2023-01-07T13:09:41.088Z,14.50
2023-01-07T13:12:46.219Z,14.20
2023-01-07T13:15:38.199Z,15.95
2023-01-07T13:18:25.617Z,13.07
2023-01-07T13:21:14.953Z,12.68
2023-01-07T13:24:21.028Z,15.15
2023-01-07T13:27:51.937Z,13.38
2023-01-07T13:30:47.192Z,16.20
2023-01-07T13:33:44.992Z,13.52
2023-01-07T13:36:39.871Z,14.23
2023-01-07T13:39:42.203Z,11.10
2023-01-07T13:42:42.214Z,13.85
2023-01-07T13:45:33.380Z,14.80
2023-01-07T13:48:28.016Z,14.77
2023-01-07T13:51:16.311Z,13.13
2023-01-07T13:54:03.983Z,11.73
2023-01-07T13:56:52.717Z,13.15
2023-01-07T13:59:52.531Z,10.30
2023-01-07T14:02:57.001Z,11.70
2023-01-07T14:05:44.230Z,12.43
2023-01-07T14:08:32.402Z,9.52
2023-01-07T14:11:21.577Z,10.25
2023-01-07T14:14:15.899Z,10.43
2023-01-07T14:17:16.137Z,11.73
2023-01-07T14:20:12.628Z,9.80
2023-01-07T14:23:09.038Z,11.35
2023-01-07T14:26:13.239Z,9.38
2023-01-07T14:29:21.055Z,10.77
2023-01-07T14:32:37.721Z,11.05
2023-01-07T14:35:31.540Z,9.95
2023-01-07T14:38:47.993Z,10.30
2023-01-07T14:41:35.194Z,10.48
2023-01-07T14:44:30.349Z,9.85
2023-01-07T14:47:54.891Z,9.38
2023-01-07T14:50:48.178Z,18.30
2023-01-07T14:54:07.104Z,13.10
2023-01-07T14:57:04.082Z,14.60
2023-01-07T15:00:21.275Z,16.83
2023-01-07T15:03:40.749Z,13.93
2023-01-07T15:06:29.999Z,14.40
2023-01-07T15:09:38.721Z,17.10
2023-01-07T15:12:48.420Z,18.48
2023-01-07T15:15:56.199Z,21.58
2023-01-07T15:18:48.815Z,23.70
2023-01-07T15:21:45.936Z,26.48
2023-01-07T15:24:40.932Z,42.83
2023-01-07T15:27:39.205Z,37.30
2023-01-07T15:30:41.140Z,31.48
2023-01-07T15:34:07.328Z,37.65
2023-01-07T15:36:54.973Z,37.63
2023-01-07T15:39:48.558Z,37.67
2023-01-07T15:42:36.232Z,40.15
2023-01-07T15:45:27.022Z,39.95
2023-01-07T15:48:14.527Z,48.45
2023-01-07T15:51:03.281Z,44.33
2023-01-07T15:53:56.183Z,46.45
2023-01-07T15:56:43.494Z,45.50
2023-01-07T15:59:34.029Z,43.83
2023-01-07T16:02:25.949Z,42.90
2023-01-07T16:05:13.327Z,46.13
2023-01-07T16:08:02.955Z,48.45
2023-01-07T16:11:02.144Z,45.85
2023-01-07T16:13:56.798Z,44.53
2023-01-07T16:16:44.257Z,41.80
2023-01-07T16:19:32.025Z,35.35
2023-01-07T16:22:22.742Z,42.88
2023-01-07T16:25:14.457Z,44.42
2023-01-07T16:28:03.140Z,42.42
2023-01-07T16:30:52.677Z,40.72
2023-01-07T16:33:41.277Z,47.05
2023-01-07T16:36:32.248Z,52.03
2023-01-07T16:39:22.365Z,54.60
2023-01-07T16:42:23.453Z,46.85
2023-01-07T16:45:24.507Z,44.75
2023-01-07T16:48:20.015Z,50.25
2023-01-07T16:51:39.646Z,47.05
2023-01-07T16:54:37.173Z,42.00
2023-01-07T16:57:33.361Z,52.30
2023-01-07T17:00:20.949Z,50.22
2023-01-07T17:03:13.070Z,49.08
2023-01-07T17:06:04.532Z,54.78
2023-01-07T17:08:55.485Z,53.65
2023-01-07T17:11:42.716Z,53.63
2023-01-07T17:14:48.051Z,58.10
2023-01-07T17:17:35.569Z,57.78
2023-01-07T17:20:23.246Z,68.40
2023-01-07T17:23:41.961Z,68.15
2023-01-07T17:26:41.102Z,65.68
2023-01-07T17:29:35.821Z,73.95
2023-01-07T17:32:24.553Z,67.78
2023-01-07T17:35:18.795Z,51.50
2023-01-07T17:38:09.971Z,46.95
2023-01-07T17:40:57.164Z,46.92
2023-01-07T17:43:44.855Z,54.05
2023-01-07T17:46:31.905Z,59.65
2023-01-07T17:49:20.398Z,63.88
2023-01-07T17:52:10.203Z,68.90
2023-01-07T17:54:57.683Z,67.38
2023-01-07T17:57:45.114Z,72.55
2023-01-07T18:00:36.644Z,89.45
2023-01-07T18:03:24.450Z,76.78
2023-01-07T18:06:17.870Z,78.95
2023-01-07T18:09:08.477Z,73.00
2023-01-07T18:12:13.542Z,67.75
2023-01-07T18:15:02.120Z,68.13
2023-01-07T18:17:50.962Z,61.92
2023-01-07T18:20:38.306Z,50.92
2023-01-07T18:23:26.625Z,43.45
2023-01-07T18:26:14.846Z,40.92
2023-01-07T18:29:02.542Z,43.28
2023-01-07T18:31:49.841Z,39.17
2023-01-07T18:34:38.382Z,39.15
2023-01-07T18:37:25.931Z,36.78
2023-01-07T18:40:13.208Z,47.53
2023-01-07T18:43:00.977Z,44.67
2023-01-07T18:45:49.026Z,61.25
2023-01-07T18:48:37.267Z,62.53
2023-01-07T18:51:26.087Z,64.72
2023-01-07T18:54:13.632Z,62.95
2023-01-07T18:57:01.351Z,57.33
2023-01-07T18:59:48.719Z,49.08
2023-01-07T19:02:36.151Z,56.47
2023-01-07T19:05:23.375Z,64.22
2023-01-07T19:08:12.087Z,47.58
2023-01-07T19:10:59.210Z,49.70
2023-01-07T19:13:46.514Z,52.08
2023-01-07T19:16:33.843Z,54.40
2023-01-07T19:19:21.022Z,65.13
2023-01-07T19:22:08.287Z,64.43
2023-01-07T19:24:57.104Z,72.82
2023-01-07T19:27:44.818Z,66.90
2023-01-07T19:30:32.234Z,60.55
2023-01-07T19:33:19.553Z,66.53
2023-01-07T19:36:10.030Z,68.15
2023-01-07T19:38:57.605Z,78.18
2023-01-07T19:41:46.700Z,68.60
2023-01-07T19:44:34.590Z,81.95
2023-01-07T19:47:21.844Z,81.22
2023-01-07T19:50:12.299Z,82.72
2023-01-07T19:53:00.228Z,68.53
2023-01-07T19:55:47.559Z,67.03
2023-01-07T19:58:39.696Z,73.70
2023-01-07T20:01:28.691Z,76.03
2023-01-07T20:04:16.046Z,85.07
2023-01-07T20:07:03.230Z,78.53
2023-01-07T20:09:50.468Z,77.95
2023-01-07T20:12:38.050Z,79.72
2023-01-07T20:15:26.479Z,81.20
2023-01-07T20:18:15.869Z,80.57
2023-01-07T20:21:03.782Z,77.10
2023-01-07T20:23:51.276Z,81.55
2023-01-07T20:26:38.967Z,82.43
2023-01-07T20:29:26.557Z,83.57
2023-01-07T20:32:15.058Z,76.95
2023-01-07T20:35:02.587Z,86.28
2023-01-07T20:37:49.675Z,78.68
2023-01-07T20:40:39.791Z,90.15
2023-01-07T20:43:27.283Z,82.70
2023-01-07T20:46:14.350Z,88.10
2023-01-07T20:49:03.568Z,81.70
2023-01-07T20:51:51.129Z,88.90
2023-01-07T20:54:38.907Z,96.18
2023-01-07T20:57:26.493Z,107.88
2023-01-07T21:00:14.822Z,104.75
2023-01-07T21:03:02.034Z,94.95
2023-01-07T21:05:51.079Z,91.20
2023-01-07T21:08:38.777Z,100.43
2023-01-07T21:11:26.695Z,89.88
2023-01-07T21:14:14.265Z,96.90
2023-01-07T21:17:01.796Z,87.63
2023-01-07T21:19:49.283Z,94.88
2023-01-07T21:22:38.936Z,92.22
2023-01-07T21:25:26.426Z,84.50
2023-01-07T21:28:13.497Z,76.85
2023-01-07T21:31:04.887Z,83.55
2023-01-07T21:33:55.234Z,88.45
2023-01-07T21:36:43.033Z,74.97
2023-01-07T21:39:31.761Z,79.07
2023-01-07T21:42:18.971Z,77.20
2023-01-07T21:45:07.641Z,82.18
2023-01-07T21:47:55.139Z,75.60
2023-01-07T21:50:42.251Z,73.85
2023-01-07T21:53:31.085Z,70.15
2023-01-07T21:56:21.750Z,63.35
2023-01-07T21:59:10.025Z,71.13
2023-01-07T22:01:57.456Z,76.32
2023-01-07T22:04:46.211Z,69.55
2023-01-07T22:07:33.567Z,68.13
2023-01-07T22:10:20.992Z,75.20
2023-01-07T22:13:09.849Z,66.53
2023-01-07T22:15:57.102Z,68.93
2023-01-07T22:18:44.410Z,64.10
2023-01-07T22:21:31.724Z,67.18
2023-01-07T22:24:19.349Z,58.15
2023-01-07T22:27:06.962Z,54.58
2023-01-07T22:29:56.182Z,57.90
2023-01-07T22:32:43.418Z,56.13
2023-01-07T22:35:30.748Z,57.75
2023-01-07T22:38:19.115Z,60.67
2023-01-07T22:41:09.308Z,60.47
2023-01-07T22:43:59.211Z,54.70
2023-01-07T22:46:51.206Z,55.70
2023-01-07T22:49:40.079Z,63.47
2023-01-07T22:52:27.480Z,69.35
2023-01-07T22:55:14.860Z,71.68
2023-01-07T22:58:02.380Z,73.85
2023-01-07T23:01:12.745Z,69.47
2023-01-07T23:04:02.007Z,62.25
2023-01-07T23:06:49.111Z,69.65
2023-01-07T23:09:36.397Z,66.28
2023-01-07T23:12:23.468Z,60.85
2023-01-07T23:15:13.201Z,64.90
2023-01-07T23:18:00.387Z,72.28
2023-01-07T23:20:49.317Z,63.10
2023-01-07T23:23:36.548Z,65.65
2023-01-07T23:26:23.935Z,58.75
2023-01-07T23:29:11.521Z,59.05
2023-01-07T23:31:58.668Z,58.63
2023-01-07T23:34:45.757Z,61.45
2023-01-07T23:37:34.647Z,65.75
2023-01-07T23:40:21.728Z,65.13
2023-01-07T23:43:09.087Z,66.82
2023-01-07T23:45:58.491Z,58.80
2023-01-07T23:48:45.722Z,58.15
2023-01-07T23:51:32.902Z,65.68
2023-01-07T23:54:22.796Z,62.10
2023-01-07T23:57:10.395Z,60.70
2023-01-07T23:59:58.223Z,63.15
